sensor_id;sensor_type;location;lat;lon;timestamp;P1;durP1;ratioP1;P2;durP2;ratioP2
11173;SDS011;5643;50.856;12.088;2024-02-28T00:02:19;37.83;;;28.47;;
11173;SDS011;5643;50.856;12.088;2024-02-28T00:04:53;33.47;;;26.20;;
11173;SDS011;5643;50.856;12.088;2024-02-28T00:07:24;37.60;;;28.50;;
11173;SDS011;5643;50.856;12.088;2024-02-28T00:09:58;37.60;;;28.40;;
11173;SDS011;5643;50.856;12.088;2024-02-28T00:12:29;36.13;;;28.23;;
11173;SDS011;5643;50.856;12.088;2024-02-28T00:15:04;42.37;;;30.57;;
11173;SDS011;5643;50.856;12.088;2024-02-28T00:17:40;43.03;;;31.13;;
11173;SDS011;5643;50.856;12.088;2024-02-28T00:20:10;43.47;;;31.23;;
11173;SDS011;5643;50.856;12.088;2024-02-28T00:22:47;39.97;;;30.30;;
11173;SDS011;5643;50.856;12.088;2024-02-28T00:25:15;44.10;;;32.23;;
11173;SDS011;5643;50.856;12.088;2024-02-28T00:27:49;43.53;;;31.67;;
11173;SDS011;5643;50.856;12.088;2024-02-28T00:30:26;38.10;;;28.43;;
11173;SDS011;5643;50.856;12.088;2024-02-28T00:32:54;44.33;;;31.67;;
11173;SDS011;5643;50.856;12.088;2024-02-28T00:35:25;43.83;;;32.23;;
11173;SDS011;5643;50.856;12.088;2024-02-28T00:37:54;43.93;;;32.27;;
11173;SDS011;5643;50.856;12.088;2024-02-28T00:40:24;51.77;;;35.40;;
11173;SDS011;5643;50.856;12.088;2024-02-28T00:42:53;45.83;;;33.43;;
11173;SDS011;5643;50.856;12.088;2024-02-28T00:45:21;51.37;;;35.67;;
11173;SDS011;5643;50.856;12.088;2024-02-28T00:47:52;46.20;;;33.27;;
11173;SDS011;5643;50.856;12.088;2024-02-28T00:50:22;45.77;;;32.27;;
11173;SDS011;5643;50.856;12.088;2024-02-28T00:52:53;44.47;;;31.43;;
11173;SDS011;5643;50.856;12.088;2024-02-28T00:55:24;40.23;;;27.97;;
11173;SDS011;5643;50.856;12.088;2024-02-28T00:57:51;48.40;;;34.27;;
11173;SDS011;5643;50.856;12.088;2024-02-28T01:00:23;46.73;;;31.87;;
11173;SDS011;5643;50.856;12.088;2024-02-28T01:02:52;46.03;;;34.37;;
11173;SDS011;5643;50.856;12.088;2024-02-28T01:05:22;46.87;;;33.50;;
11173;SDS011;5643;50.856;12.088;2024-02-28T01:07:53;42.77;;;30.73;;
11173;SDS011;5643;50.856;12.088;2024-02-28T01:10:24;46.53;;;31.93;;
11173;SDS011;5643;50.856;12.088;2024-02-28T01:12:53;46.60;;;32.43;;
11173;SDS011;5643;50.856;12.088;2024-02-28T01:15:26;42.80;;;30.53;;
11173;SDS011;5643;50.856;12.088;2024-02-28T01:18:06;43.63;;;31.63;;
11173;SDS011;5643;50.856;12.088;2024-02-28T01:20:36;40.23;;;28.60;;
11173;SDS011;5643;50.856;12.088;2024-02-28T01:23:04;43.53;;;32.23;;
11173;SDS011;5643;50.856;12.088;2024-02-28T01:25:39;46.63;;;32.80;;
11173;SDS011;5643;50.856;12.088;2024-02-28T01:28:08;40.30;;;29.87;;
11173;SDS011;5643;50.856;12.088;2024-02-28T01:30:45;39.73;;;28.77;;
11173;SDS011;5643;50.856;12.088;2024-02-28T01:33:20;39.73;;;29.37;;
11173;SDS011;5643;50.856;12.088;2024-02-28T01:35:54;38.87;;;28.47;;
11173;SDS011;5643;50.856;12.088;2024-02-28T01:38:24;42.83;;;29.83;;
11173;SDS011;5643;50.856;12.088;2024-02-28T01:40:52;39.17;;;28.00;;
11173;SDS011;5643;50.856;12.088;2024-02-28T01:43:22;41.23;;;29.80;;
11173;SDS011;5643;50.856;12.088;2024-02-28T01:45:51;44.40;;;31.73;;
11173;SDS011;5643;50.856;12.088;2024-02-28T01:48:21;45.13;;;31.90;;
11173;SDS011;5643;50.856;12.088;2024-02-28T01:50:51;45.17;;;32.27;;
11173;SDS011;5643;50.856;12.088;2024-02-28T01:53:19;44.23;;;31.17;;
11173;SDS011;5643;50.856;12.088;2024-02-28T01:55:50;46.43;;;32.83;;
11173;SDS011;5643;50.856;12.088;2024-02-28T01:58:22;44.17;;;32.00;;
11173;SDS011;5643;50.856;12.088;2024-02-28T02:01:02;37.40;;;27.77;;
11173;SDS011;5643;50.856;12.088;2024-02-28T02:03:39;41.47;;;29.73;;
11173;SDS011;5643;50.856;12.088;2024-02-28T02:06:16;40.67;;;28.90;;
11173;SDS011;5643;50.856;12.088;2024-02-28T02:08:45;37.27;;;27.87;;
11173;SDS011;5643;50.856;12.088;2024-02-28T02:11:30;34.73;;;26.93;;
11173;SDS011;5643;50.856;12.088;2024-02-28T02:14:02;37.90;;;28.13;;
11173;SDS011;5643;50.856;12.088;2024-02-28T02:16:32;39.07;;;28.43;;
11173;SDS011;5643;50.856;12.088;2024-02-28T02:19:17;39.10;;;29.73;;
11173;SDS011;5643;50.856;12.088;2024-02-28T02:21:52;32.67;;;25.80;;
11173;SDS011;5643;50.856;12.088;2024-02-28T02:24:32;32.03;;;24.83;;
11173;SDS011;5643;50.856;12.088;2024-02-28T02:27:08;33.50;;;26.03;;
11173;SDS011;5643;50.856;12.088;2024-02-28T02:29:42;31.63;;;24.40;;
11173;SDS011;5643;50.856;12.088;2024-02-28T02:32:12;33.33;;;24.17;;
11173;SDS011;5643;50.856;12.088;2024-02-28T02:34:59;30.60;;;23.30;;
11173;SDS011;5643;50.856;12.088;2024-02-28T02:37:33;29.67;;;22.87;;
11173;SDS011;5643;50.856;12.088;2024-02-28T02:43:07;26.03;;;20.67;;
11173;SDS011;5643;50.856;12.088;2024-02-28T02:45:41;24.77;;;20.33;;
11173;SDS011;5643;50.856;12.088;2024-02-28T02:48:17;26.13;;;20.23;;
11173;SDS011;5643;50.856;12.088;2024-02-28T02:50:52;22.67;;;18.77;;
11173;SDS011;5643;50.856;12.088;2024-02-28T02:53:34;22.87;;;18.97;;
11173;SDS011;5643;50.856;12.088;2024-02-28T02:56:18;23.83;;;18.83;;
11173;SDS011;5643;50.856;12.088;2024-02-28T02:58:52;22.70;;;18.20;;
11173;SDS011;5643;50.856;12.088;2024-02-28T03:01:21;23.13;;;19.00;;
11173;SDS011;5643;50.856;12.088;2024-02-28T03:03:50;24.07;;;19.10;;
11173;SDS011;5643;50.856;12.088;2024-02-28T03:06:29;22.60;;;18.53;;
11173;SDS011;5643;50.856;12.088;2024-02-28T03:09:00;22.83;;;18.77;;
11173;SDS011;5643;50.856;12.088;2024-02-28T03:11:39;23.20;;;18.90;;
11173;SDS011;5643;50.856;12.088;2024-02-28T03:14:07;25.07;;;20.03;;
11173;SDS011;5643;50.856;12.088;2024-02-28T03:16:40;30.53;;;21.73;;
11173;SDS011;5643;50.856;12.088;2024-02-28T03:19:10;26.33;;;19.57;;
11173;SDS011;5643;50.856;12.088;2024-02-28T03:21:39;28.47;;;21.63;;
11173;SDS011;5643;50.856;12.088;2024-02-28T03:24:10;30.27;;;21.70;;
11173;SDS011;5643;50.856;12.088;2024-02-28T03:26:45;29.73;;;21.50;;
11173;SDS011;5643;50.856;12.088;2024-02-28T03:29:17;31.40;;;22.13;;
11173;SDS011;5643;50.856;12.088;2024-02-28T03:31:48;30.20;;;21.60;;
11173;SDS011;5643;50.856;12.088;2024-02-28T03:34:17;30.90;;;21.87;;
11173;SDS011;5643;50.856;12.088;2024-02-28T03:36:57;33.20;;;24.07;;
11173;SDS011;5643;50.856;12.088;2024-02-28T03:39:26;37.20;;;25.77;;
11173;SDS011;5643;50.856;12.088;2024-02-28T03:41:55;39.00;;;25.97;;
11173;SDS011;5643;50.856;12.088;2024-02-28T03:44:26;36.50;;;26.30;;
11173;SDS011;5643;50.856;12.088;2024-02-28T03:46:54;37.07;;;26.53;;
11173;SDS011;5643;50.856;12.088;2024-02-28T03:49:22;36.20;;;24.97;;
11173;SDS011;5643;50.856;12.088;2024-02-28T03:51:53;36.80;;;26.67;;
11173;SDS011;5643;50.856;12.088;2024-02-28T03:54:20;35.50;;;23.83;;
11173;SDS011;5643;50.856;12.088;2024-02-28T03:56:51;33.30;;;22.93;;
11173;SDS011;5643;50.856;12.088;2024-02-28T03:59:22;35.57;;;25.77;;
11173;SDS011;5643;50.856;12.088;2024-02-28T04:01:52;35.23;;;24.73;;
11173;SDS011;5643;50.856;12.088;2024-02-28T04:04:25;32.67;;;24.60;;
11173;SDS011;5643;50.856;12.088;2024-02-28T04:07:03;32.47;;;23.43;;
11173;SDS011;5643;50.856;12.088;2024-02-28T04:09:51;33.67;;;24.63;;
11173;SDS011;5643;50.856;12.088;2024-02-28T04:12:37;35.30;;;25.53;;
11173;SDS011;5643;50.856;12.088;2024-02-28T04:15:12;30.33;;;22.43;;
11173;SDS011;5643;50.856;12.088;2024-02-28T04:17:42;33.27;;;23.37;;
11173;SDS011;5643;50.856;12.088;2024-02-28T04:20:10;33.87;;;23.77;;
11173;SDS011;5643;50.856;12.088;2024-02-28T04:22:49;34.67;;;25.07;;
11173;SDS011;5643;50.856;12.088;2024-02-28T04:25:26;30.70;;;22.57;;
11173;SDS011;5643;50.856;12.088;2024-02-28T04:27:56;35.03;;;23.87;;
11173;SDS011;5643;50.856;12.088;2024-02-28T04:30:31;32.27;;;22.67;;
11173;SDS011;5643;50.856;12.088;2024-02-28T04:33:03;36.70;;;25.83;;
11173;SDS011;5643;50.856;12.088;2024-02-28T04:35:33;39.03;;;26.90;;
11173;SDS011;5643;50.856;12.088;2024-02-28T04:38:01;34.47;;;24.00;;
11173;SDS011;5643;50.856;12.088;2024-02-28T04:40:31;31.90;;;22.03;;
11173;SDS011;5643;50.856;12.088;2024-02-28T04:43:03;33.70;;;23.57;;
11173;SDS011;5643;50.856;12.088;2024-02-28T04:45:35;37.13;;;24.43;;
11173;SDS011;5643;50.856;12.088;2024-02-28T04:48:04;36.73;;;24.30;;
11173;SDS011;5643;50.856;12.088;2024-02-28T04:50:35;39.50;;;26.17;;
11173;SDS011;5643;50.856;12.088;2024-02-28T04:53:09;37.57;;;25.50;;
11173;SDS011;5643;50.856;12.088;2024-02-28T04:55:38;41.13;;;26.33;;
11173;SDS011;5643;50.856;12.088;2024-02-28T04:58:05;34.63;;;24.70;;
11173;SDS011;5643;50.856;12.088;2024-02-28T05:00:39;36.40;;;25.03;;
11173;SDS011;5643;50.856;12.088;2024-02-28T05:03:07;35.63;;;24.80;;
11173;SDS011;5643;50.856;12.088;2024-02-28T05:05:40;32.90;;;22.63;;
11173;SDS011;5643;50.856;12.088;2024-02-28T05:08:09;30.83;;;21.50;;
11173;SDS011;5643;50.856;12.088;2024-02-28T05:10:41;31.13;;;22.40;;
11173;SDS011;5643;50.856;12.088;2024-02-28T05:13:16;35.13;;;24.83;;
11173;SDS011;5643;50.856;12.088;2024-02-28T05:15:47;34.37;;;23.40;;
11173;SDS011;5643;50.856;12.088;2024-02-28T05:18:18;36.23;;;24.07;;
11173;SDS011;5643;50.856;12.088;2024-02-28T05:20:45;31.90;;;21.90;;
11173;SDS011;5643;50.856;12.088;2024-02-28T05:23:13;39.33;;;27.03;;
11173;SDS011;5643;50.856;12.088;2024-02-28T05:25:42;39.07;;;25.77;;
11173;SDS011;5643;50.856;12.088;2024-02-28T05:28:16;34.90;;;23.77;;
11173;SDS011;5643;50.856;12.088;2024-02-28T05:30:45;35.73;;;22.57;;
11173;SDS011;5643;50.856;12.088;2024-02-28T05:33:14;45.70;;;28.30;;
11173;SDS011;5643;50.856;12.088;2024-02-28T05:35:43;38.53;;;25.40;;
11173;SDS011;5643;50.856;12.088;2024-02-28T05:38:12;42.03;;;27.63;;
11173;SDS011;5643;50.856;12.088;2024-02-28T05:40:41;43.83;;;26.73;;
11173;SDS011;5643;50.856;12.088;2024-02-28T05:43:13;48.57;;;29.67;;
11173;SDS011;5643;50.856;12.088;2024-02-28T05:45:50;41.00;;;25.57;;
11173;SDS011;5643;50.856;12.088;2024-02-28T05:48:19;41.97;;;26.57;;
11173;SDS011;5643;50.856;12.088;2024-02-28T05:50:49;43.33;;;26.90;;
11173;SDS011;5643;50.856;12.088;2024-02-28T05:53:23;45.43;;;26.43;;
11173;SDS011;5643;50.856;12.088;2024-02-28T05:56:24;36.57;;;22.60;;
11173;SDS011;5643;50.856;12.088;2024-02-28T06:03:11;42.83;;;26.37;;
11173;SDS011;5643;50.856;12.088;2024-02-28T06:05:41;41.30;;;26.83;;
11173;SDS011;5643;50.856;12.088;2024-02-28T06:08:13;41.67;;;26.60;;
11173;SDS011;5643;50.856;12.088;2024-02-28T06:10:49;41.47;;;27.10;;
11173;SDS011;5643;50.856;12.088;2024-02-28T06:13:19;38.83;;;25.00;;
11173;SDS011;5643;50.856;12.088;2024-02-28T06:15:49;32.27;;;21.80;;
11173;SDS011;5643;50.856;12.088;2024-02-28T06:18:20;33.33;;;22.00;;
11173;SDS011;5643;50.856;12.088;2024-02-28T06:20:52;37.67;;;23.93;;
11173;SDS011;5643;50.856;12.088;2024-02-28T06:23:20;35.60;;;23.07;;
11173;SDS011;5643;50.856;12.088;2024-02-28T06:25:48;36.03;;;21.77;;
11173;SDS011;5643;50.856;12.088;2024-02-28T06:28:17;37.43;;;23.63;;
11173;SDS011;5643;50.856;12.088;2024-02-28T06:30:47;36.30;;;23.80;;
11173;SDS011;5643;50.856;12.088;2024-02-28T06:33:15;37.90;;;25.77;;
11173;SDS011;5643;50.856;12.088;2024-02-28T06:35:45;34.67;;;23.73;;
11173;SDS011;5643;50.856;12.088;2024-02-28T06:38:22;32.67;;;22.57;;
11173;SDS011;5643;50.856;12.088;2024-02-28T06:40:51;34.73;;;22.60;;
11173;SDS011;5643;50.856;12.088;2024-02-28T06:43:20;30.87;;;21.77;;
11173;SDS011;5643;50.856;12.088;2024-02-28T06:45:49;27.67;;;19.47;;
11173;SDS011;5643;50.856;12.088;2024-02-28T06:48:19;38.97;;;24.73;;
11173;SDS011;5643;50.856;12.088;2024-02-28T06:50:50;34.30;;;23.30;;
11173;SDS011;5643;50.856;12.088;2024-02-28T06:53:23;39.90;;;25.27;;
11173;SDS011;5643;50.856;12.088;2024-02-28T06:55:58;33.33;;;23.90;;
11173;SDS011;5643;50.856;12.088;2024-02-28T06:58:40;34.10;;;25.00;;
11173;SDS011;5643;50.856;12.088;2024-02-28T07:01:19;33.73;;;23.30;;
11173;SDS011;5643;50.856;12.088;2024-02-28T07:03:48;34.47;;;22.87;;
11173;SDS011;5643;50.856;12.088;2024-02-28T07:06:21;29.43;;;20.73;;
11173;SDS011;5643;50.856;12.088;2024-02-28T07:09:07;31.37;;;21.63;;
11173;SDS011;5643;50.856;12.088;2024-02-28T07:11:53;30.20;;;21.53;;
11173;SDS011;5643;50.856;12.088;2024-02-28T07:14:38;30.67;;;21.60;;
11173;SDS011;5643;50.856;12.088;2024-02-28T07:17:13;27.77;;;19.33;;
11173;SDS011;5643;50.856;12.088;2024-02-28T07:19:50;24.60;;;18.03;;
11173;SDS011;5643;50.856;12.088;2024-02-28T07:22:36;25.67;;;18.73;;
11173;SDS011;5643;50.856;12.088;2024-02-28T07:28:43;26.73;;;19.50;;
11173;SDS011;5643;50.856;12.088;2024-02-28T07:31:18;23.40;;;17.50;;
11173;SDS011;5643;50.856;12.088;2024-02-28T07:33:49;24.10;;;17.63;;
11173;SDS011;5643;50.856;12.088;2024-02-28T07:36:23;25.17;;;18.20;;
11173;SDS011;5643;50.856;12.088;2024-02-28T07:38:59;23.87;;;16.30;;
11173;SDS011;5643;50.856;12.088;2024-02-28T07:41:35;21.63;;;16.60;;
11173;SDS011;5643;50.856;12.088;2024-02-28T07:44:25;22.40;;;16.20;;
11173;SDS011;5643;50.856;12.088;2024-02-28T07:47:01;18.77;;;14.47;;
11173;SDS011;5643;50.856;12.088;2024-02-28T07:49:37;20.40;;;15.03;;
11173;SDS011;5643;50.856;12.088;2024-02-28T07:52:08;16.17;;;12.97;;
11173;SDS011;5643;50.856;12.088;2024-02-28T07:54:41;15.50;;;11.80;;
11173;SDS011;5643;50.856;12.088;2024-02-28T07:57:22;15.63;;;12.13;;
11173;SDS011;5643;50.856;12.088;2024-02-28T08:00:11;16.53;;;13.50;;
11173;SDS011;5643;50.856;12.088;2024-02-28T08:02:45;16.93;;;13.57;;
11173;SDS011;5643;50.856;12.088;2024-02-28T08:05:14;18.53;;;13.80;;
11173;SDS011;5643;50.856;12.088;2024-02-28T08:08:19;16.40;;;12.30;;
11173;SDS011;5643;50.856;12.088;2024-02-28T08:10:48;14.43;;;11.07;;
11173;SDS011;5643;50.856;12.088;2024-02-28T08:16:25;14.47;;;11.23;;
11173;SDS011;5643;50.856;12.088;2024-02-28T08:19:09;12.33;;;10.07;;
11173;SDS011;5643;50.856;12.088;2024-02-28T08:22:21;12.20;;;9.43;;
11173;SDS011;5643;50.856;12.088;2024-02-28T08:28:27;17.33;;;12.40;;
11173;SDS011;5643;50.856;12.088;2024-02-28T08:31:08;14.37;;;11.20;;
11173;SDS011;5643;50.856;12.088;2024-02-28T08:34:00;16.50;;;12.33;;
11173;SDS011;5643;50.856;12.088;2024-02-28T08:37:25;15.40;;;11.80;;
11173;SDS011;5643;50.856;12.088;2024-02-28T08:40:18;15.20;;;12.00;;
11173;SDS011;5643;50.856;12.088;2024-02-28T08:44:10;12.37;;;9.43;;
11173;SDS011;5643;50.856;12.088;2024-02-28T08:47:01;13.13;;;10.80;;
11173;SDS011;5643;50.856;12.088;2024-02-28T09:05:11;11.87;;;9.77;;
11173;SDS011;5643;50.856;12.088;2024-02-28T09:08:57;13.87;;;10.27;;
11173;SDS011;5643;50.856;12.088;2024-02-28T09:11:40;10.93;;;9.17;;
11173;SDS011;5643;50.856;12.088;2024-02-28T09:18:08;13.20;;;10.77;;
11173;SDS011;5643;50.856;12.088;2024-02-28T09:20:40;13.30;;;9.50;;
11173;SDS011;5643;50.856;12.088;2024-02-28T09:24:26;13.70;;;10.30;;
11173;SDS011;5643;50.856;12.088;2024-02-28T09:34:37;11.57;;;8.70;;
11173;SDS011;5643;50.856;12.088;2024-02-28T09:37:09;12.47;;;10.17;;
11173;SDS011;5643;50.856;12.088;2024-02-28T09:40:04;11.67;;;9.30;;
11173;SDS011;5643;50.856;12.088;2024-02-28T09:42:38;11.03;;;8.70;;
11173;SDS011;5643;50.856;12.088;2024-02-28T09:45:09;11.37;;;9.50;;
11173;SDS011;5643;50.856;12.088;2024-02-28T09:47:41;13.50;;;10.60;;
11173;SDS011;5643;50.856;12.088;2024-02-28T09:50:08;13.17;;;9.57;;
11173;SDS011;5643;50.856;12.088;2024-02-28T09:52:36;9.47;;;7.87;;
11173;SDS011;5643;50.856;12.088;2024-02-28T09:55:23;9.33;;;7.43;;
11173;SDS011;5643;50.856;12.088;2024-02-28T09:58:11;11.13;;;8.50;;
11173;SDS011;5643;50.856;12.088;2024-02-28T10:00:56;9.60;;;7.70;;
11173;SDS011;5643;50.856;12.088;2024-02-28T10:07:52;12.07;;;9.70;;
11173;SDS011;5643;50.856;12.088;2024-02-28T10:10:21;10.97;;;8.30;;
11173;SDS011;5643;50.856;12.088;2024-02-28T10:12:50;9.43;;;7.67;;
11173;SDS011;5643;50.856;12.088;2024-02-28T10:15:21;9.73;;;8.00;;
11173;SDS011;5643;50.856;12.088;2024-02-28T10:17:57;11.37;;;9.43;;
11173;SDS011;5643;50.856;12.088;2024-02-28T10:20:33;11.27;;;8.97;;
11173;SDS011;5643;50.856;12.088;2024-02-28T10:23:07;10.17;;;8.10;;
11173;SDS011;5643;50.856;12.088;2024-02-28T10:25:43;11.40;;;8.30;;
11173;SDS011;5643;50.856;12.088;2024-02-28T10:28:14;8.87;;;7.90;;
11173;SDS011;5643;50.856;12.088;2024-02-28T10:30:43;10.87;;;8.77;;
11173;SDS011;5643;50.856;12.088;2024-02-28T10:33:11;10.37;;;8.40;;
11173;SDS011;5643;50.856;12.088;2024-02-28T10:35:39;11.10;;;8.93;;
11173;SDS011;5643;50.856;12.088;2024-02-28T10:38:10;11.97;;;9.43;;
11173;SDS011;5643;50.856;12.088;2024-02-28T10:40:56;9.90;;;7.70;;
11173;SDS011;5643;50.856;12.088;2024-02-28T10:44:12;10.97;;;7.80;;
11173;SDS011;5643;50.856;12.088;2024-02-28T10:46:44;9.30;;;7.50;;
11173;SDS011;5643;50.856;12.088;2024-02-28T10:49:17;7.17;;;6.13;;
11173;SDS011;5643;50.856;12.088;2024-02-28T10:51:51;9.57;;;7.13;;
11173;SDS011;5643;50.856;12.088;2024-02-28T10:54:35;7.80;;;6.50;;
11173;SDS011;5643;50.856;12.088;2024-02-28T10:57:15;7.47;;;6.67;;
11173;SDS011;5643;50.856;12.088;2024-02-28T11:00:06;9.97;;;8.40;;
11173;SDS011;5643;50.856;12.088;2024-02-28T11:07:01;9.30;;;7.70;;
11173;SDS011;5643;50.856;12.088;2024-02-28T11:09:54;9.27;;;7.47;;
11173;SDS011;5643;50.856;12.088;2024-02-28T11:12:26;10.33;;;8.17;;
11173;SDS011;5643;50.856;12.088;2024-02-28T11:15:16;8.03;;;6.70;;
11173;SDS011;5643;50.856;12.088;2024-02-28T11:18:49;6.50;;;5.60;;
11173;SDS011;5643;50.856;12.088;2024-02-28T11:21:18;6.80;;;6.00;;
11173;SDS011;5643;50.856;12.088;2024-02-28T11:23:48;9.33;;;7.87;;
11173;SDS011;5643;50.856;12.088;2024-02-28T11:30:21;10.53;;;8.63;;
11173;SDS011;5643;50.856;12.088;2024-02-28T11:33:10;9.93;;;8.20;;
11173;SDS011;5643;50.856;12.088;2024-02-28T11:37:12;8.10;;;7.00;;
11173;SDS011;5643;50.856;12.088;2024-02-28T11:47:15;6.80;;;5.87;;
11173;SDS011;5643;50.856;12.088;2024-02-28T11:49:48;7.47;;;6.10;;
11173;SDS011;5643;50.856;12.088;2024-02-28T11:52:19;8.50;;;6.60;;
11173;SDS011;5643;50.856;12.088;2024-02-28T11:58:49;6.53;;;5.50;;
11173;SDS011;5643;50.856;12.088;2024-02-28T12:01:31;4.97;;;4.47;;
11173;SDS011;5643;50.856;12.088;2024-02-28T12:04:35;5.37;;;4.73;;
11173;SDS011;5643;50.856;12.088;2024-02-28T12:07:07;5.97;;;5.17;;
11173;SDS011;5643;50.856;12.088;2024-02-28T12:10:11;6.43;;;5.57;;
11173;SDS011;5643;50.856;12.088;2024-02-28T12:12:49;5.43;;;4.80;;
11173;SDS011;5643;50.856;12.088;2024-02-28T12:15:19;5.97;;;5.03;;
11173;SDS011;5643;50.856;12.088;2024-02-28T12:17:55;6.20;;;5.07;;
11173;SDS011;5643;50.856;12.088;2024-02-28T12:20:28;4.80;;;4.23;;
11173;SDS011;5643;50.856;12.088;2024-02-28T12:22:59;6.07;;;5.37;;
11173;SDS011;5643;50.856;12.088;2024-02-28T12:25:27;5.53;;;5.03;;
11173;SDS011;5643;50.856;12.088;2024-02-28T12:27:56;6.33;;;5.17;;
11173;SDS011;5643;50.856;12.088;2024-02-28T12:30:27;6.30;;;5.27;;
11173;SDS011;5643;50.856;12.088;2024-02-28T12:33:12;5.70;;;4.90;;
11173;SDS011;5643;50.856;12.088;2024-02-28T12:35:48;6.60;;;5.90;;
11173;SDS011;5643;50.856;12.088;2024-02-28T12:38:16;5.13;;;4.60;;
11173;SDS011;5643;50.856;12.088;2024-02-28T12:44:15;6.27;;;5.67;;
11173;SDS011;5643;50.856;12.088;2024-02-28T12:46:59;5.93;;;5.33;;
11173;SDS011;5643;50.856;12.088;2024-02-28T12:49:44;5.93;;;5.30;;
11173;SDS011;5643;50.856;12.088;2024-02-28T12:52:39;6.10;;;5.50;;
11173;SDS011;5643;50.856;12.088;2024-02-28T12:55:14;7.00;;;6.30;;
11173;SDS011;5643;50.856;12.088;2024-02-28T12:57:59;6.27;;;5.30;;
11173;SDS011;5643;50.856;12.088;2024-02-28T13:00:56;5.27;;;4.27;;
11173;SDS011;5643;50.856;12.088;2024-02-28T13:03:30;6.53;;;5.90;;
11173;SDS011;5643;50.856;12.088;2024-02-28T13:06:13;6.43;;;5.80;;
11173;SDS011;5643;50.856;12.088;2024-02-28T13:09:01;6.80;;;5.87;;
11173;SDS011;5643;50.856;12.088;2024-02-28T13:14:48;6.10;;;5.27;;
11173;SDS011;5643;50.856;12.088;2024-02-28T13:18:24;5.13;;;4.13;;
11173;SDS011;5643;50.856;12.088;2024-02-28T13:20:59;6.00;;;5.27;;
11173;SDS011;5643;50.856;12.088;2024-02-28T13:23:44;6.40;;;5.30;;
11173;SDS011;5643;50.856;12.088;2024-02-28T13:26:17;4.90;;;4.40;;
11173;SDS011;5643;50.856;12.088;2024-02-28T13:29:03;5.23;;;4.73;;
11173;SDS011;5643;50.856;12.088;2024-02-28T13:32:43;4.87;;;4.17;;
11173;SDS011;5643;50.856;12.088;2024-02-28T13:35:55;6.53;;;5.70;;
11173;SDS011;5643;50.856;12.088;2024-02-28T13:39:18;5.60;;;5.10;;
11173;SDS011;5643;50.856;12.088;2024-02-28T13:42:48;5.53;;;4.97;;
11173;SDS011;5643;50.856;12.088;2024-02-28T13:45:23;7.33;;;6.10;;
11173;SDS011;5643;50.856;12.088;2024-02-28T13:47:55;5.80;;;5.20;;
11173;SDS011;5643;50.856;12.088;2024-02-28T13:50:24;4.90;;;4.40;;
11173;SDS011;5643;50.856;12.088;2024-02-28T13:53:03;4.70;;;3.67;;
11173;SDS011;5643;50.856;12.088;2024-02-28T13:55:52;5.20;;;4.23;;
11173;SDS011;5643;50.856;12.088;2024-02-28T13:58:25;4.03;;;3.63;;
11173;SDS011;5643;50.856;12.088;2024-02-28T14:01:03;4.40;;;4.00;;
11173;SDS011;5643;50.856;12.088;2024-02-28T14:03:49;4.07;;;3.60;;
11173;SDS011;5643;50.856;12.088;2024-02-28T14:07:37;4.27;;;3.87;;
11173;SDS011;5643;50.856;12.088;2024-02-28T14:10:44;3.70;;;3.27;;
11173;SDS011;5643;50.856;12.088;2024-02-28T14:17:52;5.77;;;4.73;;
11173;SDS011;5643;50.856;12.088;2024-02-28T14:20:37;5.60;;;4.60;;
11173;SDS011;5643;50.856;12.088;2024-02-28T14:23:22;6.40;;;5.47;;
11173;SDS011;5643;50.856;12.088;2024-02-28T14:25:58;5.60;;;4.83;;
11173;SDS011;5643;50.856;12.088;2024-02-28T14:29:25;5.63;;;4.60;;
11173;SDS011;5643;50.856;12.088;2024-02-28T14:32:07;5.43;;;4.83;;
11173;SDS011;5643;50.856;12.088;2024-02-28T14:34:38;5.03;;;4.53;;
11173;SDS011;5643;50.856;12.088;2024-02-28T14:37:12;4.90;;;4.23;;
11173;SDS011;5643;50.856;12.088;2024-02-28T14:39:46;5.00;;;4.20;;
11173;SDS011;5643;50.856;12.088;2024-02-28T14:42:19;5.90;;;5.17;;
11173;SDS011;5643;50.856;12.088;2024-02-28T14:44:54;4.03;;;3.67;;
11173;SDS011;5643;50.856;12.088;2024-02-28T14:47:37;4.40;;;4.00;;
11173;SDS011;5643;50.856;12.088;2024-02-28T14:50:09;5.30;;;4.30;;
11173;SDS011;5643;50.856;12.088;2024-02-28T14:52:37;5.43;;;4.57;;
11173;SDS011;5643;50.856;12.088;2024-02-28T14:55:06;5.53;;;5.03;;
11173;SDS011;5643;50.856;12.088;2024-02-28T14:57:36;5.10;;;4.60;;
11173;SDS011;5643;50.856;12.088;2024-02-28T15:00:10;5.23;;;4.73;;
11173;SDS011;5643;50.856;12.088;2024-02-28T15:02:46;6.20;;;5.30;;
11173;SDS011;5643;50.856;12.088;2024-02-28T15:05:22;4.63;;;4.20;;
11173;SDS011;5643;50.856;12.088;2024-02-28T15:07:53;4.50;;;4.03;;
11173;SDS011;5643;50.856;12.088;2024-02-28T15:10:23;4.27;;;3.87;;
11173;SDS011;5643;50.856;12.088;2024-02-28T15:12:53;4.47;;;3.83;;
11173;SDS011;5643;50.856;12.088;2024-02-28T15:16:04;5.73;;;4.87;;
11173;SDS011;5643;50.856;12.088;2024-02-28T15:18:36;6.13;;;4.70;;
11173;SDS011;5643;50.856;12.088;2024-02-28T15:21:33;5.07;;;4.50;;
11173;SDS011;5643;50.856;12.088;2024-02-28T15:24:02;4.83;;;4.20;;
11173;SDS011;5643;50.856;12.088;2024-02-28T15:26:33;4.50;;;4.10;;
11173;SDS011;5643;50.856;12.088;2024-02-28T15:29:02;4.47;;;3.90;;
11173;SDS011;5643;50.856;12.088;2024-02-28T15:31:30;3.70;;;3.33;;
11173;SDS011;5643;50.856;12.088;2024-02-28T15:35:19;4.10;;;3.40;;
11173;SDS011;5643;50.856;12.088;2024-02-28T15:38:16;4.83;;;3.90;;
11173;SDS011;5643;50.856;12.088;2024-02-28T15:40:47;4.20;;;3.80;;
11173;SDS011;5643;50.856;12.088;2024-02-28T15:43:15;5.43;;;4.47;;
11173;SDS011;5643;50.856;12.088;2024-02-28T15:45:45;4.70;;;4.13;;
11173;SDS011;5643;50.856;12.088;2024-02-28T15:48:14;6.50;;;5.90;;
11173;SDS011;5643;50.856;12.088;2024-02-28T15:50:44;6.00;;;5.40;;
11173;SDS011;5643;50.856;12.088;2024-02-28T15:53:21;9.27;;;7.67;;
11173;SDS011;5643;50.856;12.088;2024-02-28T15:55:52;7.40;;;6.60;;
11173;SDS011;5643;50.856;12.088;2024-02-28T15:58:20;6.90;;;6.27;;
11173;SDS011;5643;50.856;12.088;2024-02-28T16:00:48;5.93;;;5.33;;
11173;SDS011;5643;50.856;12.088;2024-02-28T16:03:20;6.30;;;5.60;;
11173;SDS011;5643;50.856;12.088;2024-02-28T16:05:50;5.50;;;5.00;;
11173;SDS011;5643;50.856;12.088;2024-02-28T16:08:22;6.90;;;5.37;;
11173;SDS011;5643;50.856;12.088;2024-02-28T16:11:01;4.70;;;4.20;;
11173;SDS011;5643;50.856;12.088;2024-02-28T16:13:30;6.53;;;5.43;;
11173;SDS011;5643;50.856;12.088;2024-02-28T16:16:01;7.10;;;6.40;;
11173;SDS011;5643;50.856;12.088;2024-02-28T16:18:51;6.30;;;5.70;;
11173;SDS011;5643;50.856;12.088;2024-02-28T16:21:20;6.60;;;5.93;;
11173;SDS011;5643;50.856;12.088;2024-02-28T16:24:04;5.80;;;5.20;;
11173;SDS011;5643;50.856;12.088;2024-02-28T16:26:35;5.53;;;4.87;;
11173;SDS011;5643;50.856;12.088;2024-02-28T16:29:04;5.73;;;5.07;;
11173;SDS011;5643;50.856;12.088;2024-02-28T16:31:38;6.40;;;5.37;;
11173;SDS011;5643;50.856;12.088;2024-02-28T16:34:20;5.43;;;4.90;;
11173;SDS011;5643;50.856;12.088;2024-02-28T16:36:52;5.33;;;4.80;;
11173;SDS011;5643;50.856;12.088;2024-02-28T16:39:24;4.97;;;4.47;;
11173;SDS011;5643;50.856;12.088;2024-02-28T16:41:56;5.87;;;4.60;;
11173;SDS011;5643;50.856;12.088;2024-02-28T16:44:26;4.73;;;4.20;;
11173;SDS011;5643;50.856;12.088;2024-02-28T16:46:56;5.30;;;4.80;;
11173;SDS011;5643;50.856;12.088;2024-02-28T16:49:26;5.13;;;4.23;;
11173;SDS011;5643;50.856;12.088;2024-02-28T16:51:58;5.27;;;4.50;;